KFYV/FYV METAR and TAF weather

Enter ICAO airport designator
Station Type Date Time Source
KFYV METAR 2021/06/24 05:53 UTC NOAA

KFYV 240553Z AUTO VRB04KT 10SM CLR 24/21 A3001 RMK AO2 SLP147 T02390206 10278 20233 403000128 51006


Station Type Date Time Source
KFYV Decoded METAR 2021/06/24 05:53 UTC NOAA

FAYETTEVILLE DRAKE FIELD, AR, United States (KFYV) 36-00N 94-10W 379M
Jun 24, 2021 - 01:53 AM EDT / 2021.06.24 0553 UTC
Wind: Variable at 5 MPH (4 KT):0
Visibility: 10 mile(s):0
Sky conditions: clear
Temperature: 75.0 F (23.9 C)
Dew Point: 69.1 F (20.6 C)
Relative Humidity: 81%
Pressure (altimeter): 30.01 in. Hg (1016 hPa)
Pressure tendency: 0.02 inches (0.6 hPa) higher than three hours ago
ob: KFYV 240553Z AUTO VRB04KT 10SM CLR 24/21 A3001 RMK AO2 SLP147 T02390206 10278 20233 403000128 51006
cycle: 6

Station Type Date Time Source
KFYV TAF 2021/06/24 06:30 UTC NOAA

TAF KFYV 240527Z 2406/2506 17008KT P6SM FEW035
FM241000 18010KT P6SM BKN025
FM241600 19012G22KT P6SM SCT040

Example: see airport list